createdAt,value
2022-09-23T00:01:11.128Z,49639.28
2022-09-23T00:03:39.845Z,49609.38
2022-09-23T00:06:10.674Z,49631.31
2022-09-23T00:08:37.974Z,49653.25
2022-09-23T00:11:10.945Z,49655.25
2022-09-23T00:13:39.630Z,49633.31
2022-09-23T00:16:09.394Z,49633.31
2022-09-23T00:18:36.785Z,49635.31
2022-09-23T00:21:09.159Z,49671.19
2022-09-23T00:23:36.519Z,49649.25
2022-09-23T00:26:05.758Z,49627.31
2022-09-23T00:28:33.474Z,49673.19
2022-09-23T00:31:04.853Z,49679.16
2022-09-23T00:33:31.482Z,49641.28
2022-09-23T00:36:02.769Z,49643.28
2022-09-23T00:38:29.764Z,49635.31
2022-09-23T00:40:57.207Z,49633.31
2022-09-23T00:43:47.649Z,49621.34
2022-09-23T00:46:29.244Z,49645.28
2022-09-23T00:49:01.509Z,49637.28
2022-09-23T00:51:34.449Z,49631.31
2022-09-23T00:54:02.245Z,49639.28
2022-09-23T00:56:31.375Z,49635.31
2022-09-23T00:58:58.235Z,49633.31
2022-09-23T01:01:25.573Z,49615.38
2022-09-23T01:03:54.671Z,49633.31
2022-09-23T01:06:21.638Z,49651.25
2022-09-23T01:08:48.878Z,49677.16
2022-09-23T01:11:37.245Z,49677.16
2022-09-23T01:14:36.881Z,49647.25
2022-09-23T01:17:24.613Z,49647.25
2022-09-23T01:19:57.751Z,49629.31
2022-09-23T01:22:48.787Z,49655.25
2022-09-23T01:25:21.264Z,49635.31
2022-09-23T01:28:04.316Z,49647.25
2022-09-23T01:31:09.417Z,49695.09
2022-09-23T01:33:54.395Z,49649.25
2022-09-23T01:36:42.987Z,49651.25
2022-09-23T01:39:20.963Z,49655.25
2022-09-23T01:41:51.611Z,49661.22
2022-09-23T01:44:30.641Z,49669.19
2022-09-23T01:47:11.403Z,49649.25
2022-09-23T01:49:47.407Z,49661.22
2022-09-23T01:52:27.478Z,49661.22
2022-09-23T01:55:31.858Z,49663.22
2022-09-23T01:58:07.828Z,49657.22
2022-09-23T02:00:40.783Z,49679.16
2022-09-23T02:03:18.520Z,49663.22
2022-09-23T02:05:48.585Z,49657.22
2022-09-23T02:08:22.111Z,49623.34
2022-09-23T02:11:03.950Z,49639.28
2022-09-23T02:14:00.037Z,49669.19
2022-09-23T02:16:41.206Z,49655.25
2022-09-23T02:19:13.853Z,49661.22
2022-09-23T02:21:47.083Z,49659.22
2022-09-23T02:24:20.951Z,49671.19
2022-09-23T02:26:55.859Z,49701.09
2022-09-23T02:29:38.276Z,49661.22
2022-09-23T02:32:18.608Z,49679.16
2022-09-23T02:35:10.170Z,49659.22
2022-09-23T02:37:49.173Z,49657.22
2022-09-23T02:40:38.129Z,49659.22
2022-09-23T02:43:15.276Z,49655.25
2022-09-23T02:45:42.127Z,49705.06
2022-09-23T02:48:35.029Z,49683.16
2022-09-23T02:51:02.323Z,49687.13
2022-09-23T02:53:30.517Z,49667.19
2022-09-23T02:55:57.071Z,49645.28
2022-09-23T02:58:24.857Z,49695.09
2022-09-23T03:01:07.799Z,49675.19
2022-09-23T03:03:43.206Z,49701.09
2022-09-23T03:06:44.331Z,49641.28
2022-09-23T03:09:19.976Z,49651.25
2022-09-23T03:11:53.023Z,49653.25
2022-09-23T03:14:39.307Z,49719.03
2022-09-23T03:17:15.967Z,49701.09
2022-09-23T03:20:01.157Z,49667.19
2022-09-23T03:22:33.649Z,49637.28
2022-09-23T03:25:07.133Z,49691.13
2022-09-23T03:27:36.770Z,49687.13
2022-09-23T03:30:05.125Z,49661.22
2022-09-23T03:32:34.833Z,49675.19
2022-09-23T03:35:03.886Z,49647.25
2022-09-23T03:37:35.823Z,49687.13
2022-09-23T03:40:17.730Z,49683.16
2022-09-23T03:42:44.434Z,49669.19
2022-09-23T03:45:18.317Z,49669.19
2022-09-23T03:47:45.393Z,49671.19
2022-09-23T03:50:13.437Z,49701.09
2022-09-23T03:52:40.499Z,49679.16
2022-09-23T03:55:07.918Z,49657.22
2022-09-23T03:57:34.611Z,49671.19
2022-09-23T04:00:01.430Z,49669.19
2022-09-23T04:02:38.843Z,49683.16
2022-09-23T04:05:06.584Z,49667.19
2022-09-23T04:07:33.342Z,49675.19
2022-09-23T04:10:00.013Z,49677.16
2022-09-23T04:12:26.692Z,49689.13
2022-09-23T04:14:53.453Z,49681.16
2022-09-23T04:17:20.068Z,49667.19
2022-09-23T04:19:46.750Z,49673.19
2022-09-23T04:22:13.447Z,49693.13
2022-09-23T04:24:40.013Z,49653.25
2022-09-23T04:27:06.742Z,49671.19
2022-09-23T04:29:33.320Z,49667.19
2022-09-23T04:32:00.056Z,49673.19
2022-09-23T04:34:26.805Z,49639.28
2022-09-23T04:36:53.413Z,49687.13
2022-09-23T04:39:20.145Z,49671.19
2022-09-23T04:41:47.305Z,49659.22
2022-09-23T04:44:14.664Z,49673.19
2022-09-23T04:46:42.469Z,49667.19
2022-09-23T04:49:09.130Z,49667.19
2022-09-23T04:51:36.313Z,49647.25
2022-09-23T04:54:02.985Z,49659.22
2022-09-23T04:56:32.636Z,49677.16
2022-09-23T04:59:01.773Z,49675.19
2022-09-23T05:01:34.464Z,49667.19
2022-09-23T05:04:08.459Z,49663.22
2022-09-23T05:06:35.687Z,49681.16
2022-09-23T05:09:05.342Z,49655.25
2022-09-23T05:11:32.363Z,49689.13
2022-09-23T05:13:59.297Z,49675.19
2022-09-23T05:16:27.151Z,49665.22
2022-09-23T05:18:54.340Z,49679.16
2022-09-23T05:21:23.468Z,49703.09
2022-09-23T05:23:54.398Z,49697.09
2022-09-23T05:26:26.099Z,49679.16
2022-09-23T05:28:53.863Z,49703.09
2022-09-23T05:31:22.682Z,49701.09
2022-09-23T05:33:52.152Z,49677.16
2022-09-23T05:36:21.281Z,49695.09
2022-09-23T05:38:50.872Z,49685.13
2022-09-23T05:41:19.597Z,49685.13
2022-09-23T05:43:47.270Z,49683.16
2022-09-23T05:46:16.673Z,49689.13
2022-09-23T05:48:45.817Z,49705.06
2022-09-23T05:51:20.457Z,49709.06
2022-09-23T05:53:48.312Z,49679.16
2022-09-23T05:56:17.012Z,49667.19
2022-09-23T05:58:44.037Z,49667.19
2022-09-23T06:01:14.654Z,49635.31
2022-09-23T06:03:41.523Z,49675.19
2022-09-23T06:06:12.563Z,49709.06
2022-09-23T06:08:39.454Z,49695.09
2022-09-23T06:11:07.720Z,49689.13
2022-09-23T06:13:37.275Z,49691.13
2022-09-23T06:16:08.683Z,49689.13
2022-09-23T06:18:37.827Z,49667.19
2022-09-23T06:21:04.966Z,49683.16
2022-09-23T06:23:32.299Z,49667.19
2022-09-23T06:26:04.311Z,49647.25
2022-09-23T06:28:32.995Z,49691.13
2022-09-23T06:31:01.593Z,49693.13
2022-09-23T06:33:36.034Z,49675.19
2022-09-23T06:36:07.743Z,49639.28
2022-09-23T06:38:35.421Z,49679.16
2022-09-23T06:41:03.474Z,49675.19
2022-09-23T06:43:30.473Z,49675.19
2022-09-23T06:45:59.719Z,49663.22
2022-09-23T06:48:27.896Z,49701.09
2022-09-23T06:50:58.225Z,49663.22
2022-09-23T06:53:25.418Z,49681.16
2022-09-23T06:56:02.477Z,49651.25
2022-09-23T06:58:31.696Z,49663.22
2022-09-23T07:01:14.899Z,49651.25
2022-09-23T07:03:41.683Z,49671.19
2022-09-23T07:06:08.311Z,49667.19
2022-09-23T07:08:35.693Z,49653.25
2022-09-23T07:11:05.819Z,49647.25
2022-09-23T07:13:33.573Z,49671.19
2022-09-23T07:16:04.581Z,49641.28
2022-09-23T07:18:36.648Z,49673.19
2022-09-23T07:21:07.061Z,49653.25
2022-09-23T07:23:33.995Z,49627.31
2022-09-23T07:26:01.101Z,49657.22
2022-09-23T07:28:29.088Z,49645.28
2022-09-23T07:31:00.347Z,49643.28
2022-09-23T07:33:33.051Z,49655.25
2022-09-23T07:36:08.353Z,49651.25
2022-09-23T07:38:36.426Z,49647.25
2022-09-23T07:41:08.982Z,49631.31
2022-09-23T07:43:35.982Z,49629.31
2022-09-23T07:46:08.301Z,49635.31
2022-09-23T07:48:36.835Z,49655.25
2022-09-23T07:51:08.850Z,49611.38
2022-09-23T07:53:36.025Z,49649.25
2022-09-23T07:56:06.474Z,49627.31
2022-09-23T07:58:34.021Z,49637.28
2022-09-23T08:01:06.275Z,49655.25
2022-09-23T08:03:33.244Z,49597.44
2022-09-23T08:06:13.311Z,49623.34
2022-09-23T08:08:43.699Z,49657.22
2022-09-23T08:11:13.236Z,49637.28
2022-09-23T08:13:40.498Z,49669.19
2022-09-23T08:16:07.462Z,49651.25
2022-09-23T08:18:34.380Z,49659.22
2022-09-23T08:21:01.512Z,49615.38
2022-09-23T08:23:33.313Z,49659.22
2022-09-23T08:26:02.404Z,49643.28
2022-09-23T08:28:29.388Z,49639.28
2022-09-23T08:30:56.334Z,49619.34
2022-09-23T08:33:24.038Z,49623.34
2022-09-23T08:35:51.989Z,49635.31
2022-09-23T08:38:19.030Z,49657.22
2022-09-23T08:40:49.523Z,49603.41
2022-09-23T08:43:26.482Z,49639.28
2022-09-23T08:45:55.512Z,49599.41
2022-09-23T08:48:32.214Z,49599.41
2022-09-23T08:51:06.653Z,49587.47
2022-09-23T08:53:37.622Z,49595.44
2022-09-23T08:56:09.737Z,49629.31
2022-09-23T08:59:13.335Z,49595.44
2022-09-23T09:01:47.783Z,49615.38
2022-09-23T09:04:19.113Z,49593.44
2022-09-23T09:06:54.024Z,49577.50
2022-09-23T09:09:29.124Z,49615.38
2022-09-23T09:12:03.273Z,49613.38
2022-09-23T09:14:42.453Z,49589.44
2022-09-23T09:17:34.409Z,49631.31
2022-09-23T09:20:23.238Z,49597.44
2022-09-23T09:22:57.902Z,49647.25
2022-09-23T09:25:34.097Z,49623.34
2022-09-23T09:28:01.452Z,49623.34
2022-09-23T09:30:28.385Z,49611.38
2022-09-23T09:32:58.570Z,49613.38
2022-09-23T09:35:41.058Z,49627.31
2022-09-23T09:38:08.036Z,49567.53
2022-09-23T09:40:35.249Z,49593.44
2022-09-23T09:43:04.675Z,49599.41
2022-09-23T09:45:57.906Z,49603.41
2022-09-23T09:48:53.757Z,49575.50
2022-09-23T09:51:23.261Z,49593.44
2022-09-23T09:53:53.128Z,49599.41
2022-09-23T09:56:33.260Z,49549.59
2022-09-23T09:59:02.138Z,49631.31
2022-09-23T10:01:31.452Z,49611.38
2022-09-23T10:04:05.099Z,49563.53
2022-09-23T10:06:34.773Z,49555.56
2022-09-23T10:09:01.848Z,49593.44
2022-09-23T10:11:29.797Z,49587.47
2022-09-23T10:14:00.162Z,49619.34
2022-09-23T10:16:27.667Z,49587.47
2022-09-23T10:18:56.951Z,49589.44
2022-09-23T10:21:27.992Z,49579.47
2022-09-23T10:23:58.290Z,49571.50
2022-09-23T10:26:34.383Z,49595.44
2022-09-23T10:29:28.031Z,49559.56
2022-09-23T10:32:30.721Z,49571.50
2022-09-23T10:35:13.371Z,49571.50
2022-09-23T10:37:48.235Z,49575.50
2022-09-23T10:40:33.746Z,49583.47
2022-09-23T10:43:43.989Z,49583.47
2022-09-23T10:46:39.466Z,49587.47
2022-09-23T10:49:27.350Z,49595.44
2022-09-23T10:51:57.006Z,49595.44
2022-09-23T10:55:00.392Z,49567.53
2022-09-23T10:57:45.135Z,49547.59
2022-09-23T11:00:49.333Z,49585.47
2022-09-23T11:03:38.631Z,49561.53
2022-09-23T11:06:38.763Z,49545.59
2022-09-23T11:09:25.579Z,49489.78
2022-09-23T11:12:02.038Z,49553.56
2022-09-23T11:15:14.465Z,49537.63
2022-09-23T11:18:11.208Z,49541.59
2022-09-23T11:20:54.844Z,49553.56
2022-09-23T11:23:39.641Z,49563.53
2022-09-23T11:26:30.573Z,49589.44
2022-09-23T11:29:18.279Z,49539.63
2022-09-23T11:32:06.318Z,49555.56
2022-09-23T11:34:52.642Z,49553.56
2022-09-23T11:37:28.155Z,49583.47
2022-09-23T11:40:19.861Z,49587.47
2022-09-23T11:43:13.429Z,49563.53
2022-09-23T11:45:48.016Z,49577.50
2022-09-23T11:48:22.009Z,49587.47
2022-09-23T11:51:02.489Z,49547.59
2022-09-23T11:53:36.485Z,49565.53
2022-09-23T11:56:27.643Z,49521.69
2022-09-23T11:59:10.280Z,49571.50
2022-09-23T12:01:45.679Z,49539.63
2022-09-23T12:04:53.359Z,49553.56
2022-09-23T12:07:31.205Z,49543.59
2022-09-23T12:10:05.662Z,49549.59
2022-09-23T12:12:59.030Z,49543.59
2022-09-23T12:15:53.092Z,49579.47
2022-09-23T12:18:23.396Z,49559.56
2022-09-23T12:21:27.099Z,49547.59
2022-09-23T12:24:26.333Z,49523.66
2022-09-23T12:26:59.006Z,49539.63
2022-09-23T12:29:30.338Z,49587.47
2022-09-23T12:31:57.177Z,49523.66
2022-09-23T12:34:34.456Z,49559.56
2022-09-23T12:37:04.037Z,49559.56
2022-09-23T12:39:34.506Z,49567.53
2022-09-23T12:42:22.812Z,49553.56
2022-09-23T12:44:50.653Z,49541.59
2022-09-23T12:47:28.103Z,49539.63
2022-09-23T12:49:56.582Z,49535.63
2022-09-23T12:52:31.851Z,49493.75
2022-09-23T12:55:26.496Z,49515.69
2022-09-23T12:57:53.422Z,49525.66
2022-09-23T13:00:19.954Z,49527.66
2022-09-23T13:03:09.224Z,49523.66
2022-09-23T13:06:02.456Z,49507.72
2022-09-23T13:08:29.392Z,49585.47
2022-09-23T13:10:59.979Z,49531.63
2022-09-23T13:13:36.429Z,49547.59
2022-09-23T13:16:21.325Z,49535.63
2022-09-23T13:18:54.844Z,49543.59
2022-09-23T13:21:42.868Z,49529.66
2022-09-23T13:24:19.365Z,49527.66
2022-09-23T13:26:58.986Z,49511.72
2022-09-23T13:29:42.301Z,49559.56
2022-09-23T13:32:15.167Z,49551.56
2022-09-23T13:34:44.411Z,49581.47
2022-09-23T13:37:22.062Z,49555.56
2022-09-23T13:39:49.822Z,49549.59
2022-09-23T13:42:39.977Z,49587.47
2022-09-23T13:45:18.219Z,49543.59
2022-09-23T13:47:48.104Z,49535.63
2022-09-23T13:50:18.324Z,49525.66
2022-09-23T13:52:46.059Z,49555.56
2022-09-23T13:55:37.540Z,49515.69
2022-09-23T13:58:13.879Z,49559.56
2022-09-23T14:00:40.585Z,49563.53
2022-09-23T14:03:24.647Z,49523.66
2022-09-23T14:05:52.911Z,49533.63
2022-09-23T14:08:20.078Z,49563.53
2022-09-23T14:10:47.659Z,49571.50
2022-09-23T14:13:26.066Z,49551.56
2022-09-23T14:15:56.157Z,49535.63
2022-09-23T14:18:29.475Z,49571.50
2022-09-23T14:20:56.334Z,49571.50
2022-09-23T14:23:22.973Z,49537.63
2022-09-23T14:25:51.389Z,49563.53
2022-09-23T14:28:23.761Z,49567.53
2022-09-23T14:30:57.659Z,49531.63
2022-09-23T14:33:32.046Z,49541.59
2022-09-23T14:36:31.903Z,49529.66
2022-09-23T14:39:07.817Z,49515.69
2022-09-23T14:41:38.621Z,49549.59
2022-09-23T14:44:07.066Z,49549.59
2022-09-23T14:46:36.990Z,49541.59
2022-09-23T14:49:16.278Z,49555.56
2022-09-23T14:51:53.213Z,49543.59
2022-09-23T14:54:24.909Z,49581.47
2022-09-23T14:56:53.064Z,49551.56
2022-09-23T14:59:34.771Z,49531.63
2022-09-23T15:02:02.174Z,49535.63
2022-09-23T15:04:32.266Z,49541.59
2022-09-23T15:07:15.754Z,49567.53
2022-09-23T15:09:44.206Z,49563.53
2022-09-23T15:12:21.718Z,49535.63
2022-09-23T15:14:55.032Z,49531.63
2022-09-23T15:17:24.330Z,49537.63
2022-09-23T15:19:56.647Z,49575.50
2022-09-23T15:22:25.110Z,49567.53
2022-09-23T15:24:53.835Z,49547.59
2022-09-23T15:27:34.436Z,49575.50
2022-09-23T15:30:16.311Z,49551.56
2022-09-23T15:32:44.892Z,49545.59
2022-09-23T15:35:18.921Z,49547.59
2022-09-23T15:37:47.311Z,49543.59
2022-09-23T15:40:19.355Z,49563.53
2022-09-23T15:42:52.913Z,49547.59
2022-09-23T15:45:26.589Z,49531.63
2022-09-23T15:47:53.767Z,49585.47
2022-09-23T15:50:20.454Z,49547.59
2022-09-23T15:52:47.122Z,49575.50
2022-09-23T15:55:23.642Z,49545.59
2022-09-23T16:15:56.374Z,49563.53
2022-09-23T16:18:23.236Z,49557.56
2022-09-23T16:20:50.821Z,49523.66
2022-09-23T16:23:37.603Z,49577.50
2022-09-23T16:26:27.802Z,49589.44
2022-09-23T16:28:56.528Z,49539.63
2022-09-23T16:31:25.558Z,49557.56
2022-09-23T16:33:53.670Z,49559.56
2022-09-23T16:36:23.047Z,49591.44
2022-09-23T16:38:50.077Z,49583.47
2022-09-23T16:41:16.771Z,49587.47
2022-09-23T16:43:43.465Z,49583.47
2022-09-23T16:46:12.662Z,49559.56
2022-09-23T16:48:44.991Z,49507.72
2022-09-23T16:51:29.033Z,49547.59
2022-09-23T16:53:57.518Z,49559.56
2022-09-23T16:56:28.828Z,49541.59
2022-09-23T16:58:56.666Z,49555.56
2022-09-23T17:01:46.713Z,49583.47
2022-09-23T17:04:16.086Z,49555.56
2022-09-23T17:06:44.334Z,49555.56
2022-09-23T17:09:11.983Z,49555.56
2022-09-23T17:11:38.625Z,49557.56
2022-09-23T17:14:06.023Z,49581.47
2022-09-23T17:16:34.816Z,49567.53
2022-09-23T17:19:08.099Z,49547.59
2022-09-23T17:21:35.632Z,49575.50
2022-09-23T17:24:03.061Z,49575.50
2022-09-23T17:26:29.982Z,49547.59
2022-09-23T17:28:59.409Z,49561.53
2022-09-23T17:31:26.238Z,49553.56
2022-09-23T17:33:53.591Z,49577.50
2022-09-23T17:36:20.805Z,49577.50
2022-09-23T17:38:48.293Z,49571.50
2022-09-23T17:41:15.704Z,49567.53
2022-09-23T17:43:42.392Z,49599.41
2022-09-23T17:46:12.970Z,49605.41
2022-09-23T17:48:41.435Z,49573.50
2022-09-23T17:51:14.100Z,49601.41
2022-09-23T17:53:42.482Z,49549.59
2022-09-23T17:56:12.471Z,49595.44
2022-09-23T17:58:39.501Z,49601.41
2022-09-23T18:01:20.377Z,49563.53
2022-09-23T18:03:47.823Z,49587.47
2022-09-23T18:06:19.851Z,49585.47
2022-09-23T18:08:48.761Z,49585.47
2022-09-23T18:11:36.250Z,49615.38
2022-09-23T18:14:12.013Z,49593.44
2022-09-23T18:16:41.109Z,49621.34
2022-09-23T18:19:10.962Z,49591.44
2022-09-23T18:21:41.777Z,49613.38
2022-09-23T18:24:31.242Z,49613.38
2022-09-23T18:26:59.615Z,49609.38
2022-09-23T18:29:26.455Z,49637.28
2022-09-23T18:31:53.233Z,49631.31
2022-09-23T18:34:20.458Z,49605.41
2022-09-23T18:36:47.324Z,49611.38
2022-09-23T18:39:14.063Z,49591.44
2022-09-23T18:41:41.225Z,49635.31
2022-09-23T18:44:08.977Z,49571.50
2022-09-23T18:46:35.764Z,49615.38
2022-09-23T18:49:21.251Z,49583.47
2022-09-23T18:51:47.894Z,49647.25
2022-09-23T18:54:14.636Z,49647.25
2022-09-23T18:56:43.473Z,49615.38
2022-09-23T18:59:19.421Z,49655.25
2022-09-23T19:01:48.297Z,49583.47
2022-09-23T19:04:17.926Z,49601.41
2022-09-23T19:06:44.649Z,49589.44
2022-09-23T19:09:12.234Z,49579.47
2022-09-23T19:11:39.433Z,49597.44
2022-09-23T19:14:09.866Z,49583.47
2022-09-23T19:16:38.290Z,49617.38
2022-09-23T19:19:05.837Z,49611.38
2022-09-23T19:21:33.442Z,49605.41
2022-09-23T19:24:06.068Z,49639.28
2022-09-23T19:26:38.405Z,49621.34
2022-09-23T19:29:08.025Z,49671.19
2022-09-23T19:31:41.123Z,49635.31
2022-09-23T19:34:13.177Z,49601.41
2022-09-23T19:36:42.205Z,49633.31
2022-09-23T19:39:18.009Z,49617.38
2022-09-23T19:41:45.337Z,49607.41
2022-09-23T19:44:12.191Z,49611.38
2022-09-23T19:46:45.254Z,49611.38
2022-09-23T19:49:13.123Z,49641.28
2022-09-23T19:51:40.348Z,49611.38
2022-09-23T19:54:07.983Z,49651.25
2022-09-23T19:56:35.081Z,49637.28
2022-09-23T19:59:05.854Z,49607.41
2022-09-23T20:01:33.628Z,49615.38
2022-09-23T20:04:00.722Z,49649.25
2022-09-23T20:06:31.937Z,49627.31
2022-09-23T20:09:00.732Z,49677.16
2022-09-23T20:11:28.775Z,49599.41
2022-09-23T20:14:02.187Z,49623.34
2022-09-23T20:16:32.525Z,49633.31
2022-09-23T20:19:00.268Z,49621.34
2022-09-23T20:21:28.374Z,49663.22
2022-09-23T20:23:55.531Z,49647.25
2022-09-23T20:26:40.907Z,49627.31
2022-09-23T20:29:08.936Z,49645.28
2022-09-23T20:31:35.812Z,49607.41
2022-09-23T20:34:09.193Z,49635.31
2022-09-23T20:36:36.242Z,49663.22
2022-09-23T20:39:09.006Z,49627.31
2022-09-23T20:41:37.885Z,49641.28
2022-09-23T20:44:08.150Z,49645.28
2022-09-23T20:46:35.922Z,49627.31
2022-09-23T20:49:03.900Z,49621.34
2022-09-23T20:51:33.246Z,49635.31
2022-09-23T20:54:00.544Z,49675.19
2022-09-23T20:56:27.652Z,49643.28
2022-09-23T20:58:54.573Z,49647.25
2022-09-23T21:01:22.005Z,49639.28
2022-09-23T21:03:50.164Z,49677.16
2022-09-23T21:06:19.031Z,49621.34
2022-09-23T21:08:46.503Z,49645.28
2022-09-23T21:11:17.598Z,49655.25
2022-09-23T21:13:49.144Z,49629.31
2022-09-23T21:16:17.792Z,49649.25
2022-09-23T21:18:45.638Z,49661.22
2022-09-23T21:21:14.118Z,49651.25
2022-09-23T21:23:42.715Z,49657.22
2022-09-23T21:26:12.114Z,49655.25
2022-09-23T21:28:40.960Z,49657.22
2022-09-23T21:31:10.886Z,49607.41
2022-09-23T21:33:37.867Z,49631.31
2022-09-23T21:36:06.780Z,49679.16
2022-09-23T21:38:39.247Z,49659.22
2022-09-23T21:41:08.165Z,49631.31
2022-09-23T21:43:38.472Z,49653.25
2022-09-23T21:46:07.719Z,49659.22
2022-09-23T21:48:36.941Z,49667.19
2022-09-23T21:51:12.060Z,49667.19
2022-09-23T21:53:39.649Z,49627.31
2022-09-23T21:56:09.534Z,49667.19
2022-09-23T21:58:38.022Z,49651.25
2022-09-23T22:01:13.660Z,49683.16
2022-09-23T22:03:40.571Z,49663.22
2022-09-23T22:06:10.319Z,49633.31
2022-09-23T22:08:39.362Z,49651.25
2022-09-23T22:11:28.941Z,49633.31
2022-09-23T22:13:56.381Z,49647.25
2022-09-23T22:16:23.520Z,49687.13
2022-09-23T22:18:52.176Z,49645.28
2022-09-23T22:21:20.167Z,49655.25
2022-09-23T22:23:46.883Z,49675.19
2022-09-23T22:26:13.546Z,49643.28
2022-09-23T22:28:58.508Z,49635.31
2022-09-23T22:31:43.425Z,49627.31
2022-09-23T22:34:25.510Z,49643.28
2022-09-23T22:36:58.726Z,49659.22
2022-09-23T22:39:26.458Z,49607.41
2022-09-23T22:41:53.153Z,49667.19
2022-09-23T22:44:20.417Z,49629.31
2022-09-23T22:46:48.014Z,49659.22
2022-09-23T22:49:15.478Z,49695.09
2022-09-23T22:51:45.550Z,49671.19
2022-09-23T22:54:12.372Z,49665.22
2022-09-23T22:56:39.240Z,49679.16
2022-09-23T22:59:07.736Z,49667.19
2022-09-23T23:01:35.492Z,49679.16
2022-09-23T23:04:02.745Z,49667.19
2022-09-23T23:06:36.917Z,49675.19
2022-09-23T23:09:08.828Z,49677.16
2022-09-23T23:11:35.828Z,49649.25
2022-09-23T23:14:03.201Z,49679.16
2022-09-23T23:16:33.750Z,49687.13
2022-09-23T23:19:02.210Z,49683.16
2022-09-23T23:21:28.850Z,49659.22
2022-09-23T23:23:55.534Z,49683.16
2022-09-23T23:26:26.551Z,49651.25
2022-09-23T23:28:54.398Z,49669.19
2022-09-23T23:31:22.140Z,49649.25
2022-09-23T23:33:49.505Z,49639.28
2022-09-23T23:36:18.697Z,49663.22
2022-09-23T23:38:47.531Z,49693.13
2022-09-23T23:41:17.348Z,49687.13
2022-09-23T23:43:46.851Z,49651.25
2022-09-23T23:46:14.902Z,49681.16
2022-09-23T23:48:43.849Z,49675.19
2022-09-23T23:51:11.668Z,49685.13
2022-09-23T23:53:40.063Z,49661.22
2022-09-23T23:56:10.136Z,49687.13
2022-09-23T23:58:37.317Z,49693.13
